sensor_id;sensor_type;location;lat;lon;timestamp;P1;durP1;ratioP1;P2;durP2;ratioP2
76617;SDS011;65509;42.816;74.648;2023-10-31T00:00:11;38.17;;;10.05;;
76617;SDS011;65509;42.816;74.648;2023-10-31T00:02:37;32.25;;;10.10;;
76617;SDS011;65509;42.816;74.648;2023-10-31T00:05:03;46.55;;;11.48;;
76617;SDS011;65509;42.816;74.648;2023-10-31T00:07:28;31.42;;;10.95;;
76617;SDS011;65509;42.816;74.648;2023-10-31T00:09:54;43.78;;;10.88;;
76617;SDS011;65509;42.816;74.648;2023-10-31T00:12:20;38.67;;;10.50;;
76617;SDS011;65509;42.816;74.648;2023-10-31T00:14:45;28.60;;;10.93;;
76617;SDS011;65509;42.816;74.648;2023-10-31T00:17:11;34.63;;;10.13;;
76617;SDS011;65509;42.816;74.648;2023-10-31T00:19:36;40.55;;;9.93;;
76617;SDS011;65509;42.816;74.648;2023-10-31T00:22:02;44.45;;;9.55;;
76617;SDS011;65509;42.816;74.648;2023-10-31T00:24:28;33.15;;;9.60;;
76617;SDS011;65509;42.816;74.648;2023-10-31T00:26:54;44.42;;;10.23;;
76617;SDS011;65509;42.816;74.648;2023-10-31T00:29:19;37.63;;;10.27;;
76617;SDS011;65509;42.816;74.648;2023-10-31T00:31:44;50.28;;;9.60;;
76617;SDS011;65509;42.816;74.648;2023-10-31T00:34:10;39.50;;;9.82;;
76617;SDS011;65509;42.816;74.648;2023-10-31T00:36:35;43.38;;;9.57;;
76617;SDS011;65509;42.816;74.648;2023-10-31T00:39:01;50.25;;;10.13;;
76617;SDS011;65509;42.816;74.648;2023-10-31T00:41:26;42.38;;;9.73;;
76617;SDS011;65509;42.816;74.648;2023-10-31T00:43:52;37.95;;;9.30;;
76617;SDS011;65509;42.816;74.648;2023-10-31T00:46:17;35.95;;;9.35;;
76617;SDS011;65509;42.816;74.648;2023-10-31T00:48:43;39.13;;;9.25;;
76617;SDS011;65509;42.816;74.648;2023-10-31T00:51:08;37.20;;;8.48;;
76617;SDS011;65509;42.816;74.648;2023-10-31T00:53:34;32.60;;;8.73;;
76617;SDS011;65509;42.816;74.648;2023-10-31T00:55:59;43.38;;;9.05;;
76617;SDS011;65509;42.816;74.648;2023-10-31T00:58:25;42.50;;;8.80;;
76617;SDS011;65509;42.816;74.648;2023-10-31T01:00:50;35.70;;;8.75;;
76617;SDS011;65509;42.816;74.648;2023-10-31T01:03:15;36.30;;;8.73;;
76617;SDS011;65509;42.816;74.648;2023-10-31T01:05:41;32.60;;;8.65;;
76617;SDS011;65509;42.816;74.648;2023-10-31T01:08:06;47.55;;;9.75;;
76617;SDS011;65509;42.816;74.648;2023-10-31T01:10:32;38.53;;;8.50;;
76617;SDS011;65509;42.816;74.648;2023-10-31T01:12:57;53.78;;;9.27;;
76617;SDS011;65509;42.816;74.648;2023-10-31T01:15:23;49.08;;;9.38;;
76617;SDS011;65509;42.816;74.648;2023-10-31T01:17:48;45.55;;;9.13;;
76617;SDS011;65509;42.816;74.648;2023-10-31T01:20:14;57.25;;;10.00;;
76617;SDS011;65509;42.816;74.648;2023-10-31T01:22:39;81.13;;;10.00;;
76617;SDS011;65509;42.816;74.648;2023-10-31T01:25:05;50.85;;;9.57;;
76617;SDS011;65509;42.816;74.648;2023-10-31T01:27:30;60.72;;;11.20;;
76617;SDS011;65509;42.816;74.648;2023-10-31T01:29:56;94.63;;;12.10;;
76617;SDS011;65509;42.816;74.648;2023-10-31T01:32:21;76.47;;;11.43;;
76617;SDS011;65509;42.816;74.648;2023-10-31T01:34:47;53.92;;;9.63;;
76617;SDS011;65509;42.816;74.648;2023-10-31T01:37:13;57.50;;;9.63;;
76617;SDS011;65509;42.816;74.648;2023-10-31T01:39:39;71.18;;;10.27;;
76617;SDS011;65509;42.816;74.648;2023-10-31T01:42:05;64.97;;;11.23;;
76617;SDS011;65509;42.816;74.648;2023-10-31T01:44:30;57.03;;;10.57;;
76617;SDS011;65509;42.816;74.648;2023-10-31T01:46:56;52.28;;;11.38;;
76617;SDS011;65509;42.816;74.648;2023-10-31T01:49:21;56.45;;;10.70;;
76617;SDS011;65509;42.816;74.648;2023-10-31T01:51:47;61.47;;;11.52;;
76617;SDS011;65509;42.816;74.648;2023-10-31T01:54:13;48.22;;;10.70;;
76617;SDS011;65509;42.816;74.648;2023-10-31T01:56:39;49.60;;;11.10;;
76617;SDS011;65509;42.816;74.648;2023-10-31T01:59:05;63.38;;;11.80;;
76617;SDS011;65509;42.816;74.648;2023-10-31T02:01:31;67.20;;;11.85;;
76617;SDS011;65509;42.816;74.648;2023-10-31T02:03:56;72.75;;;12.43;;
76617;SDS011;65509;42.816;74.648;2023-10-31T02:06:23;61.20;;;11.88;;
76617;SDS011;65509;42.816;74.648;2023-10-31T02:08:49;75.25;;;12.73;;
76617;SDS011;65509;42.816;74.648;2023-10-31T02:11:14;61.55;;;12.63;;
76617;SDS011;65509;42.816;74.648;2023-10-31T02:13:40;64.65;;;12.65;;
76617;SDS011;65509;42.816;74.648;2023-10-31T02:16:05;71.72;;;13.35;;
76617;SDS011;65509;42.816;74.648;2023-10-31T02:18:31;68.50;;;13.65;;
76617;SDS011;65509;42.816;74.648;2023-10-31T02:20:57;67.72;;;14.43;;
76617;SDS011;65509;42.816;74.648;2023-10-31T02:23:22;55.05;;;13.73;;
76617;SDS011;65509;42.816;74.648;2023-10-31T02:25:48;51.40;;;13.48;;
76617;SDS011;65509;42.816;74.648;2023-10-31T02:28:13;56.13;;;14.35;;
76617;SDS011;65509;42.816;74.648;2023-10-31T02:30:40;82.97;;;10.63;;
76617;SDS011;65509;42.816;74.648;2023-10-31T02:33:06;62.08;;;9.02;;
76617;SDS011;65509;42.816;74.648;2023-10-31T02:35:31;33.05;;;5.80;;
76617;SDS011;65509;42.816;74.648;2023-10-31T02:37:57;28.40;;;5.20;;
76617;SDS011;65509;42.816;74.648;2023-10-31T02:40:23;29.88;;;5.00;;
76617;SDS011;65509;42.816;74.648;2023-10-31T02:42:48;23.48;;;4.03;;
76617;SDS011;65509;42.816;74.648;2023-10-31T02:45:14;35.33;;;4.65;;
76617;SDS011;65509;42.816;74.648;2023-10-31T02:47:42;33.72;;;4.18;;
76617;SDS011;65509;42.816;74.648;2023-10-31T02:50:07;28.60;;;4.47;;
76617;SDS011;65509;42.816;74.648;2023-10-31T02:52:33;20.50;;;3.50;;
76617;SDS011;65509;42.816;74.648;2023-10-31T02:54:58;24.83;;;4.05;;
76617;SDS011;65509;42.816;74.648;2023-10-31T02:57:24;20.80;;;3.95;;
76617;SDS011;65509;42.816;74.648;2023-10-31T02:59:49;19.33;;;4.50;;
76617;SDS011;65509;42.816;74.648;2023-10-31T03:02:15;21.75;;;4.40;;
76617;SDS011;65509;42.816;74.648;2023-10-31T03:04:40;23.30;;;4.82;;
76617;SDS011;65509;42.816;74.648;2023-10-31T03:07:06;25.98;;;5.85;;
76617;SDS011;65509;42.816;74.648;2023-10-31T03:09:31;21.65;;;4.55;;
76617;SDS011;65509;42.816;74.648;2023-10-31T03:11:57;20.90;;;4.53;;
76617;SDS011;65509;42.816;74.648;2023-10-31T03:14:22;17.33;;;5.15;;
76617;SDS011;65509;42.816;74.648;2023-10-31T03:16:48;19.23;;;3.40;;
76617;SDS011;65509;42.816;74.648;2023-10-31T03:19:13;26.02;;;3.92;;
76617;SDS011;65509;42.816;74.648;2023-10-31T03:21:39;12.23;;;3.45;;
76617;SDS011;65509;42.816;74.648;2023-10-31T03:24:04;10.48;;;2.90;;
76617;SDS011;65509;42.816;74.648;2023-10-31T03:26:30;16.05;;;3.50;;
76617;SDS011;65509;42.816;74.648;2023-10-31T03:28:55;16.20;;;3.50;;
76617;SDS011;65509;42.816;74.648;2023-10-31T03:31:22;18.33;;;3.50;;
76617;SDS011;65509;42.816;74.648;2023-10-31T03:33:48;20.88;;;3.83;;
76617;SDS011;65509;42.816;74.648;2023-10-31T03:36:13;18.52;;;3.75;;
76617;SDS011;65509;42.816;74.648;2023-10-31T03:38:39;16.05;;;3.20;;
76617;SDS011;65509;42.816;74.648;2023-10-31T03:41:04;24.10;;;4.15;;
76617;SDS011;65509;42.816;74.648;2023-10-31T03:43:30;13.63;;;3.10;;
76617;SDS011;65509;42.816;74.648;2023-10-31T03:45:58;18.80;;;3.45;;
76617;SDS011;65509;42.816;74.648;2023-10-31T03:48:23;12.18;;;2.85;;
76617;SDS011;65509;42.816;74.648;2023-10-31T03:50:49;13.75;;;2.92;;
76617;SDS011;65509;42.816;74.648;2023-10-31T03:53:15;24.00;;;3.58;;
76617;SDS011;65509;42.816;74.648;2023-10-31T03:55:41;18.60;;;3.20;;
76617;SDS011;65509;42.816;74.648;2023-10-31T03:58:06;24.00;;;4.07;;
76617;SDS011;65509;42.816;74.648;2023-10-31T04:00:32;17.50;;;3.90;;
76617;SDS011;65509;42.816;74.648;2023-10-31T04:02:58;18.02;;;3.88;;
76617;SDS011;65509;42.816;74.648;2023-10-31T04:05:23;17.17;;;3.58;;
76617;SDS011;65509;42.816;74.648;2023-10-31T04:07:49;22.58;;;4.10;;
76617;SDS011;65509;42.816;74.648;2023-10-31T04:10:15;25.83;;;4.68;;
76617;SDS011;65509;42.816;74.648;2023-10-31T04:12:41;20.38;;;4.47;;
76617;SDS011;65509;42.816;74.648;2023-10-31T04:15:07;25.73;;;4.43;;
76617;SDS011;65509;42.816;74.648;2023-10-31T04:17:32;20.80;;;3.88;;
76617;SDS011;65509;42.816;74.648;2023-10-31T04:19:58;17.65;;;3.70;;
76617;SDS011;65509;42.816;74.648;2023-10-31T04:22:23;16.33;;;3.47;;
76617;SDS011;65509;42.816;74.648;2023-10-31T04:24:49;19.85;;;3.38;;
76617;SDS011;65509;42.816;74.648;2023-10-31T04:27:17;24.83;;;4.40;;
76617;SDS011;65509;42.816;74.648;2023-10-31T04:29:42;17.75;;;3.88;;
76617;SDS011;65509;42.816;74.648;2023-10-31T04:32:08;30.90;;;4.35;;
76617;SDS011;65509;42.816;74.648;2023-10-31T04:34:34;17.65;;;4.05;;
76617;SDS011;65509;42.816;74.648;2023-10-31T04:36:59;19.73;;;4.38;;
76617;SDS011;65509;42.816;74.648;2023-10-31T04:39:25;20.45;;;4.05;;
76617;SDS011;65509;42.816;74.648;2023-10-31T04:41:50;24.25;;;4.63;;
76617;SDS011;65509;42.816;74.648;2023-10-31T04:44:16;21.67;;;4.30;;
76617;SDS011;65509;42.816;74.648;2023-10-31T04:46:42;15.45;;;3.90;;
76617;SDS011;65509;42.816;74.648;2023-10-31T04:49:16;27.30;;;5.00;;
76617;SDS011;65509;42.816;74.648;2023-10-31T04:54:07;22.50;;;4.73;;
76617;SDS011;65509;42.816;74.648;2023-10-31T04:56:37;17.42;;;3.83;;
76617;SDS011;65509;42.816;74.648;2023-10-31T04:59:05;17.80;;;3.92;;
76617;SDS011;65509;42.816;74.648;2023-10-31T05:01:31;15.60;;;3.88;;
76617;SDS011;65509;42.816;74.648;2023-10-31T05:03:56;17.05;;;3.72;;
76617;SDS011;65509;42.816;74.648;2023-10-31T05:06:22;11.52;;;3.33;;
76617;SDS011;65509;42.816;74.648;2023-10-31T05:08:48;22.10;;;3.95;;
76617;SDS011;65509;42.816;74.648;2023-10-31T05:11:18;28.45;;;4.85;;
76617;SDS011;65509;42.816;74.648;2023-10-31T05:13:44;17.38;;;4.03;;
76617;SDS011;65509;42.816;74.648;2023-10-31T05:16:10;24.65;;;4.45;;
76617;SDS011;65509;42.816;74.648;2023-10-31T05:18:37;18.42;;;3.55;;
76617;SDS011;65509;42.816;74.648;2023-10-31T05:21:03;14.63;;;3.40;;
76617;SDS011;65509;42.816;74.648;2023-10-31T05:23:28;17.42;;;3.38;;
76617;SDS011;65509;42.816;74.648;2023-10-31T05:25:54;13.75;;;3.13;;
76617;SDS011;65509;42.816;74.648;2023-10-31T05:28:20;26.13;;;4.20;;
76617;SDS011;65509;42.816;74.648;2023-10-31T05:30:46;18.90;;;3.53;;
76617;SDS011;65509;42.816;74.648;2023-10-31T05:33:14;21.63;;;3.80;;
76617;SDS011;65509;42.816;74.648;2023-10-31T05:35:39;13.43;;;3.75;;
76617;SDS011;65509;42.816;74.648;2023-10-31T05:38:05;14.68;;;3.78;;
76617;SDS011;65509;42.816;74.648;2023-10-31T05:40:30;16.15;;;3.85;;
76617;SDS011;65509;42.816;74.648;2023-10-31T05:42:57;15.77;;;4.55;;
76617;SDS011;65509;42.816;74.648;2023-10-31T05:45:22;20.55;;;4.25;;
76617;SDS011;65509;42.816;74.648;2023-10-31T05:47:48;16.27;;;4.20;;
76617;SDS011;65509;42.816;74.648;2023-10-31T05:50:13;24.80;;;4.40;;
76617;SDS011;65509;42.816;74.648;2023-10-31T05:52:39;15.88;;;4.30;;
76617;SDS011;65509;42.816;74.648;2023-10-31T05:55:04;25.98;;;5.35;;
76617;SDS011;65509;42.816;74.648;2023-10-31T05:57:30;14.50;;;4.43;;
76617;SDS011;65509;42.816;74.648;2023-10-31T05:59:55;18.45;;;4.55;;
76617;SDS011;65509;42.816;74.648;2023-10-31T06:02:24;17.77;;;4.00;;
76617;SDS011;65509;42.816;74.648;2023-10-31T06:04:49;17.95;;;4.20;;
76617;SDS011;65509;42.816;74.648;2023-10-31T06:07:15;20.65;;;4.97;;
76617;SDS011;65509;42.816;74.648;2023-10-31T06:09:41;16.67;;;4.22;;
76617;SDS011;65509;42.816;74.648;2023-10-31T06:12:06;17.02;;;4.10;;
76617;SDS011;65509;42.816;74.648;2023-10-31T06:14:32;17.08;;;4.82;;
76617;SDS011;65509;42.816;74.648;2023-10-31T06:16:57;23.35;;;5.30;;
76617;SDS011;65509;42.816;74.648;2023-10-31T06:19:24;22.25;;;4.93;;
76617;SDS011;65509;42.816;74.648;2023-10-31T06:21:50;13.65;;;2.80;;
76617;SDS011;65509;42.816;74.648;2023-10-31T06:24:15;23.83;;;3.78;;
76617;SDS011;65509;42.816;74.648;2023-10-31T06:26:40;15.18;;;3.50;;
76617;SDS011;65509;42.816;74.648;2023-10-31T06:29:09;21.27;;;4.32;;
76617;SDS011;65509;42.816;74.648;2023-10-31T06:31:34;18.35;;;3.50;;
76617;SDS011;65509;42.816;74.648;2023-10-31T06:34:00;17.27;;;3.35;;
76617;SDS011;65509;42.816;74.648;2023-10-31T06:36:25;16.10;;;3.42;;
76617;SDS011;65509;42.816;74.648;2023-10-31T06:38:53;10.23;;;2.10;;
76617;SDS011;65509;42.816;74.648;2023-10-31T06:41:19;18.70;;;2.67;;
76617;SDS011;65509;42.816;74.648;2023-10-31T06:43:47;11.98;;;2.28;;
76617;SDS011;65509;42.816;74.648;2023-10-31T06:46:14;25.23;;;3.17;;
76617;SDS011;65509;42.816;74.648;2023-10-31T06:48:43;14.13;;;2.90;;
76617;SDS011;65509;42.816;74.648;2023-10-31T06:51:11;19.23;;;2.70;;
76617;SDS011;65509;42.816;74.648;2023-10-31T06:53:37;12.30;;;3.05;;
76617;SDS011;65509;42.816;74.648;2023-10-31T06:56:02;15.50;;;3.50;;
76617;SDS011;65509;42.816;74.648;2023-10-31T06:58:28;14.27;;;4.25;;
76617;SDS011;65509;42.816;74.648;2023-10-31T07:03:44;12.20;;;4.57;;
76617;SDS011;65509;42.816;74.648;2023-10-31T07:06:10;19.08;;;5.20;;
76617;SDS011;65509;42.816;74.648;2023-10-31T07:08:38;15.38;;;4.10;;
76617;SDS011;65509;42.816;74.648;2023-10-31T07:11:03;14.88;;;3.25;;
76617;SDS011;65509;42.816;74.648;2023-10-31T07:13:30;11.27;;;2.67;;
76617;SDS011;65509;42.816;74.648;2023-10-31T07:15:55;10.80;;;2.75;;
76617;SDS011;65509;42.816;74.648;2023-10-31T07:18:20;20.77;;;3.53;;
76617;SDS011;65509;42.816;74.648;2023-10-31T07:20:46;14.93;;;2.83;;
76617;SDS011;65509;42.816;74.648;2023-10-31T07:23:11;20.55;;;3.60;;
76617;SDS011;65509;42.816;74.648;2023-10-31T07:25:40;14.15;;;2.97;;
76617;SDS011;65509;42.816;74.648;2023-10-31T07:28:05;18.05;;;3.33;;
76617;SDS011;65509;42.816;74.648;2023-10-31T07:30:30;14.75;;;2.60;;
76617;SDS011;65509;42.816;74.648;2023-10-31T07:32:56;17.30;;;2.33;;
76617;SDS011;65509;42.816;74.648;2023-10-31T07:35:21;18.35;;;2.30;;
76617;SDS011;65509;42.816;74.648;2023-10-31T07:37:47;9.77;;;1.55;;
76617;SDS011;65509;42.816;74.648;2023-10-31T07:40:12;12.30;;;1.58;;
76617;SDS011;65509;42.816;74.648;2023-10-31T07:42:38;9.35;;;1.50;;
76617;SDS011;65509;42.816;74.648;2023-10-31T07:45:03;14.38;;;1.83;;
76617;SDS011;65509;42.816;74.648;2023-10-31T07:47:29;17.52;;;4.88;;
76617;SDS011;65509;42.816;74.648;2023-10-31T07:49:54;17.50;;;3.95;;
76617;SDS011;65509;42.816;74.648;2023-10-31T07:52:20;31.48;;;3.75;;
76617;SDS011;65509;42.816;74.648;2023-10-31T07:54:45;13.00;;;1.98;;
76617;SDS011;65509;42.816;74.648;2023-10-31T07:57:32;18.98;;;2.25;;
76617;SDS011;65509;42.816;74.648;2023-10-31T08:00:12;15.65;;;1.90;;
76617;SDS011;65509;42.816;74.648;2023-10-31T08:02:37;10.65;;;1.38;;
76617;SDS011;65509;42.816;74.648;2023-10-31T08:05:09;9.00;;;1.70;;
76617;SDS011;65509;42.816;74.648;2023-10-31T08:07:38;12.63;;;2.55;;
76617;SDS011;65509;42.816;74.648;2023-10-31T08:10:04;16.05;;;3.00;;
76617;SDS011;65509;42.816;74.648;2023-10-31T08:12:30;18.88;;;3.22;;
76617;SDS011;65509;42.816;74.648;2023-10-31T08:15:01;17.48;;;3.20;;
76617;SDS011;65509;42.816;74.648;2023-10-31T08:17:27;24.17;;;3.15;;
76617;SDS011;65509;42.816;74.648;2023-10-31T08:20:00;13.88;;;1.98;;
76617;SDS011;65509;42.816;74.648;2023-10-31T08:25:16;17.75;;;2.95;;
76617;SDS011;65509;42.816;74.648;2023-10-31T08:27:42;11.18;;;2.30;;
76617;SDS011;65509;42.816;74.648;2023-10-31T08:30:08;29.20;;;4.07;;
76617;SDS011;65509;42.816;74.648;2023-10-31T08:32:33;11.65;;;3.08;;
76617;SDS011;65509;42.816;74.648;2023-10-31T08:34:59;19.58;;;3.72;;
76617;SDS011;65509;42.816;74.648;2023-10-31T08:37:26;21.02;;;3.75;;
76617;SDS011;65509;42.816;74.648;2023-10-31T08:39:51;17.60;;;2.45;;
76617;SDS011;65509;42.816;74.648;2023-10-31T08:42:20;14.50;;;2.10;;
76617;SDS011;65509;42.816;74.648;2023-10-31T08:44:48;10.82;;;1.60;;
76617;SDS011;65509;42.816;74.648;2023-10-31T08:47:16;14.38;;;2.05;;
76617;SDS011;65509;42.816;74.648;2023-10-31T08:49:44;17.10;;;2.15;;
76617;SDS011;65509;42.816;74.648;2023-10-31T08:52:18;14.68;;;1.83;;
76617;SDS011;65509;42.816;74.648;2023-10-31T08:54:46;9.00;;;1.63;;
76617;SDS011;65509;42.816;74.648;2023-10-31T08:57:12;13.48;;;1.90;;
76617;SDS011;65509;42.816;74.648;2023-10-31T08:59:37;19.00;;;2.40;;
76617;SDS011;65509;42.816;74.648;2023-10-31T09:05:17;13.35;;;2.15;;
76617;SDS011;65509;42.816;74.648;2023-10-31T09:07:42;11.77;;;2.08;;
76617;SDS011;65509;42.816;74.648;2023-10-31T09:10:17;9.98;;;2.15;;
76617;SDS011;65509;42.816;74.648;2023-10-31T09:12:45;22.98;;;3.22;;
76617;SDS011;65509;42.816;74.648;2023-10-31T09:15:11;11.73;;;2.70;;
76617;SDS011;65509;42.816;74.648;2023-10-31T09:17:38;18.05;;;3.17;;
76617;SDS011;65509;42.816;74.648;2023-10-31T09:20:07;11.32;;;2.78;;
76617;SDS011;65509;42.816;74.648;2023-10-31T09:25:19;27.15;;;4.68;;
76617;SDS011;65509;42.816;74.648;2023-10-31T09:27:54;23.00;;;6.80;;
76617;SDS011;65509;42.816;74.648;2023-10-31T09:30:19;26.20;;;8.05;;
76617;SDS011;65509;42.816;74.648;2023-10-31T09:32:45;14.68;;;5.90;;
76617;SDS011;65509;42.816;74.648;2023-10-31T09:35:10;21.70;;;8.25;;
76617;SDS011;65509;42.816;74.648;2023-10-31T09:37:36;20.13;;;8.20;;
76617;SDS011;65509;42.816;74.648;2023-10-31T09:40:04;19.70;;;7.22;;
76617;SDS011;65509;42.816;74.648;2023-10-31T09:42:32;21.00;;;7.00;;
76617;SDS011;65509;42.816;74.648;2023-10-31T09:45:02;23.13;;;7.95;;
76617;SDS011;65509;42.816;74.648;2023-10-31T09:47:31;24.13;;;6.15;;
76617;SDS011;65509;42.816;74.648;2023-10-31T09:49:59;23.48;;;10.23;;
76617;SDS011;65509;42.816;74.648;2023-10-31T09:52:28;30.58;;;11.52;;
76617;SDS011;65509;42.816;74.648;2023-10-31T09:54:54;19.20;;;8.82;;
76617;SDS011;65509;42.816;74.648;2023-10-31T09:57:20;23.58;;;8.75;;
76617;SDS011;65509;42.816;74.648;2023-10-31T09:59:45;18.83;;;7.03;;
76617;SDS011;65509;42.816;74.648;2023-10-31T10:02:11;22.77;;;10.80;;
76617;SDS011;65509;42.816;74.648;2023-10-31T10:04:37;30.08;;;8.95;;
76617;SDS011;65509;42.816;74.648;2023-10-31T10:09:55;13.02;;;3.63;;
76617;SDS011;65509;42.816;74.648;2023-10-31T10:12:24;17.80;;;3.22;;
76617;SDS011;65509;42.816;74.648;2023-10-31T10:14:52;14.25;;;4.40;;
76617;SDS011;65509;42.816;74.648;2023-10-31T10:17:20;20.33;;;10.55;;
76617;SDS011;65509;42.816;74.648;2023-10-31T10:22:38;22.45;;;5.80;;
76617;SDS011;65509;42.816;74.648;2023-10-31T10:25:14;16.00;;;4.10;;
76617;SDS011;65509;42.816;74.648;2023-10-31T10:27:46;13.75;;;4.00;;
76617;SDS011;65509;42.816;74.648;2023-10-31T10:30:12;16.85;;;4.72;;
76617;SDS011;65509;42.816;74.648;2023-10-31T10:32:41;21.08;;;5.05;;
76617;SDS011;65509;42.816;74.648;2023-10-31T10:35:09;20.50;;;4.97;;
76617;SDS011;65509;42.816;74.648;2023-10-31T10:37:36;29.88;;;6.20;;
76617;SDS011;65509;42.816;74.648;2023-10-31T10:40:26;21.85;;;5.13;;
76617;SDS011;65509;42.816;74.648;2023-10-31T10:42:53;24.85;;;5.47;;
76617;SDS011;65509;42.816;74.648;2023-10-31T10:45:24;25.42;;;6.80;;
76617;SDS011;65509;42.816;74.648;2023-10-31T10:47:50;18.35;;;7.25;;
76617;SDS011;65509;42.816;74.648;2023-10-31T10:50:18;20.23;;;5.53;;
76617;SDS011;65509;42.816;74.648;2023-10-31T10:53:16;15.82;;;4.95;;
76617;SDS011;65509;42.816;74.648;2023-10-31T10:55:50;24.02;;;5.20;;
76617;SDS011;65509;42.816;74.648;2023-10-31T11:00:45;17.67;;;6.07;;
76617;SDS011;65509;42.816;74.648;2023-10-31T11:03:11;17.45;;;6.90;;
76617;SDS011;65509;42.816;74.648;2023-10-31T11:05:37;42.25;;;16.48;;
76617;SDS011;65509;42.816;74.648;2023-10-31T11:08:11;47.92;;;21.63;;
76617;SDS011;65509;42.816;74.648;2023-10-31T11:10:39;32.13;;;11.23;;
76617;SDS011;65509;42.816;74.648;2023-10-31T11:13:05;32.90;;;14.57;;
76617;SDS011;65509;42.816;74.648;2023-10-31T11:15:31;44.90;;;15.90;;
76617;SDS011;65509;42.816;74.648;2023-10-31T11:17:56;23.00;;;5.43;;
76617;SDS011;65509;42.816;74.648;2023-10-31T11:20:22;22.70;;;9.15;;
76617;SDS011;65509;42.816;74.648;2023-10-31T11:22:57;27.70;;;7.35;;
76617;SDS011;65509;42.816;74.648;2023-10-31T11:28:14;33.80;;;11.30;;
76617;SDS011;65509;42.816;74.648;2023-10-31T11:30:40;37.22;;;11.85;;
76617;SDS011;65509;42.816;74.648;2023-10-31T11:33:16;29.88;;;12.40;;
76617;SDS011;65509;42.816;74.648;2023-10-31T11:35:44;30.33;;;14.02;;
76617;SDS011;65509;42.816;74.648;2023-10-31T11:38:13;37.80;;;13.15;;
76617;SDS011;65509;42.816;74.648;2023-10-31T11:51:50;16.58;;;6.70;;
76617;SDS011;65509;42.816;74.648;2023-10-31T11:54:15;25.77;;;11.02;;
76617;SDS011;65509;42.816;74.648;2023-10-31T11:56:42;47.10;;;16.88;;
76617;SDS011;65509;42.816;74.648;2023-10-31T11:59:15;29.48;;;11.90;;
76617;SDS011;65509;42.816;74.648;2023-10-31T12:01:44;32.47;;;9.52;;
76617;SDS011;65509;42.816;74.648;2023-10-31T12:04:20;20.50;;;8.52;;
76617;SDS011;65509;42.816;74.648;2023-10-31T12:06:46;14.40;;;6.95;;
76617;SDS011;65509;42.816;74.648;2023-10-31T12:09:11;15.40;;;6.32;;
76617;SDS011;65509;42.816;74.648;2023-10-31T12:11:43;21.20;;;6.45;;
76617;SDS011;65509;42.816;74.648;2023-10-31T12:14:10;27.73;;;7.82;;
76617;SDS011;65509;42.816;74.648;2023-10-31T12:16:38;29.95;;;8.02;;
76617;SDS011;65509;42.816;74.648;2023-10-31T12:19:04;17.63;;;7.25;;
76617;SDS011;65509;42.816;74.648;2023-10-31T12:24:06;22.15;;;7.97;;
76617;SDS011;65509;42.816;74.648;2023-10-31T12:26:50;35.63;;;9.30;;
76617;SDS011;65509;42.816;74.648;2023-10-31T12:31:46;33.83;;;14.93;;
76617;SDS011;65509;42.816;74.648;2023-10-31T12:34:15;30.45;;;14.45;;
76617;SDS011;65509;42.816;74.648;2023-10-31T12:36:45;32.35;;;14.48;;
76617;SDS011;65509;42.816;74.648;2023-10-31T12:39:11;30.23;;;14.07;;
76617;SDS011;65509;42.816;74.648;2023-10-31T12:41:37;32.63;;;13.70;;
76617;SDS011;65509;42.816;74.648;2023-10-31T12:44:03;34.47;;;13.50;;
76617;SDS011;65509;42.816;74.648;2023-10-31T12:46:35;33.88;;;12.98;;
76617;SDS011;65509;42.816;74.648;2023-10-31T12:49:16;22.23;;;10.25;;
76617;SDS011;65509;42.816;74.648;2023-10-31T12:51:59;55.53;;;12.13;;
76617;SDS011;65509;42.816;74.648;2023-10-31T12:57:14;23.55;;;9.93;;
76617;SDS011;65509;42.816;74.648;2023-10-31T12:59:40;28.08;;;9.60;;
76617;SDS011;65509;42.816;74.648;2023-10-31T13:02:06;15.43;;;8.63;;
76617;SDS011;65509;42.816;74.648;2023-10-31T13:04:41;36.65;;;10.45;;
76617;SDS011;65509;42.816;74.648;2023-10-31T13:07:12;33.40;;;9.50;;
76617;SDS011;65509;42.816;74.648;2023-10-31T13:09:49;37.95;;;12.23;;
76617;SDS011;65509;42.816;74.648;2023-10-31T13:12:16;23.92;;;11.00;;
76617;SDS011;65509;42.816;74.648;2023-10-31T13:17:52;40.72;;;14.90;;
76617;SDS011;65509;42.816;74.648;2023-10-31T13:20:19;39.97;;;16.75;;
76617;SDS011;65509;42.816;74.648;2023-10-31T13:22:47;36.45;;;18.80;;
76617;SDS011;65509;42.816;74.648;2023-10-31T13:25:13;28.80;;;14.80;;
76617;SDS011;65509;42.816;74.648;2023-10-31T13:27:42;35.63;;;16.52;;
76617;SDS011;65509;42.816;74.648;2023-10-31T13:30:14;37.15;;;18.13;;
76617;SDS011;65509;42.816;74.648;2023-10-31T13:33:04;43.83;;;20.38;;
76617;SDS011;65509;42.816;74.648;2023-10-31T13:35:30;54.92;;;26.42;;
76617;SDS011;65509;42.816;74.648;2023-10-31T13:38:01;49.30;;;22.15;;
76617;SDS011;65509;42.816;74.648;2023-10-31T13:40:27;47.28;;;20.85;;
76617;SDS011;65509;42.816;74.648;2023-10-31T13:42:56;40.20;;;17.80;;
76617;SDS011;65509;42.816;74.648;2023-10-31T13:45:24;28.20;;;13.30;;
76617;SDS011;65509;42.816;74.648;2023-10-31T13:47:50;28.50;;;12.02;;
76617;SDS011;65509;42.816;74.648;2023-10-31T13:50:28;48.42;;;23.58;;
76617;SDS011;65509;42.816;74.648;2023-10-31T13:53:00;61.05;;;30.85;;
76617;SDS011;65509;42.816;74.648;2023-10-31T13:55:34;50.83;;;26.63;;
76617;SDS011;65509;42.816;74.648;2023-10-31T14:00:49;55.30;;;26.48;;
76617;SDS011;65509;42.816;74.648;2023-10-31T14:03:16;58.05;;;27.85;;
76617;SDS011;65509;42.816;74.648;2023-10-31T14:05:54;43.05;;;22.55;;
76617;SDS011;65509;42.816;74.648;2023-10-31T14:11:10;47.08;;;18.63;;
76617;SDS011;65509;42.816;74.648;2023-10-31T14:16:49;43.28;;;15.63;;
76617;SDS011;65509;42.816;74.648;2023-10-31T14:19:17;33.15;;;14.70;;
76617;SDS011;65509;42.816;74.648;2023-10-31T14:21:43;46.22;;;15.10;;
76617;SDS011;65509;42.816;74.648;2023-10-31T14:24:13;26.05;;;11.15;;
76617;SDS011;65509;42.816;74.648;2023-10-31T14:26:45;41.83;;;13.75;;
76617;SDS011;65509;42.816;74.648;2023-10-31T14:29:19;38.88;;;13.43;;
76617;SDS011;65509;42.816;74.648;2023-10-31T14:31:51;41.90;;;15.57;;
76617;SDS011;65509;42.816;74.648;2023-10-31T14:37:18;46.60;;;23.42;;
76617;SDS011;65509;42.816;74.648;2023-10-31T14:39:46;56.38;;;21.45;;
76617;SDS011;65509;42.816;74.648;2023-10-31T14:45:28;41.25;;;21.00;;
76617;SDS011;65509;42.816;74.648;2023-10-31T14:47:56;49.03;;;24.50;;
76617;SDS011;65509;42.816;74.648;2023-10-31T15:02:36;144.30;;;61.97;;
76617;SDS011;65509;42.816;74.648;2023-10-31T15:05:01;72.15;;;26.83;;
76617;SDS011;65509;42.816;74.648;2023-10-31T15:10:35;47.65;;;25.55;;
76617;SDS011;65509;42.816;74.648;2023-10-31T15:13:03;40.83;;;19.30;;
76617;SDS011;65509;42.816;74.648;2023-10-31T15:15:49;84.85;;;36.47;;
76617;SDS011;65509;42.816;74.648;2023-10-31T15:18:27;44.17;;;22.08;;
76617;SDS011;65509;42.816;74.648;2023-10-31T15:20:52;87.97;;;36.38;;
76617;SDS011;65509;42.816;74.648;2023-10-31T15:23:35;79.30;;;36.55;;
76617;SDS011;65509;42.816;74.648;2023-10-31T15:26:16;74.32;;;38.40;;
76617;SDS011;65509;42.816;74.648;2023-10-31T15:29:00;51.83;;;19.73;;
76617;SDS011;65509;42.816;74.648;2023-10-31T15:31:31;56.10;;;25.08;;
76617;SDS011;65509;42.816;74.648;2023-10-31T15:49:01;48.38;;;21.13;;
76617;SDS011;65509;42.816;74.648;2023-10-31T15:54:51;60.83;;;23.58;;